createdAt,value
2018-05-04T00:02:15.571Z,14.90
2018-05-04T00:04:43.445Z,14.80
2018-05-04T00:07:11.286Z,14.80
2018-05-04T00:09:40.137Z,14.70
2018-05-04T00:12:07.993Z,14.70
2018-05-04T00:14:36.676Z,14.60
2018-05-04T00:17:04.691Z,14.60
2018-05-04T00:19:32.611Z,14.60
2018-05-04T00:22:00.626Z,14.70
2018-05-04T00:24:28.543Z,14.70
2018-05-04T00:26:56.395Z,14.70
2018-05-04T00:29:24.395Z,14.60
2018-05-04T00:31:52.287Z,14.60
2018-05-04T00:34:20.106Z,14.60
2018-05-04T00:36:47.848Z,14.60
2018-05-04T00:39:15.885Z,14.60
2018-05-04T00:41:43.689Z,14.60
2018-05-04T00:44:12.187Z,14.60
2018-05-04T00:46:39.967Z,14.60
2018-05-04T00:49:07.792Z,14.60
2018-05-04T00:51:36.547Z,14.60
2018-05-04T00:54:16.376Z,14.50
2018-05-04T00:56:44.328Z,14.60
2018-05-04T00:59:12.271Z,14.50
2018-05-04T01:01:40.961Z,14.50
2018-05-04T01:04:08.917Z,14.50
2018-05-04T01:06:37.697Z,14.50
2018-05-04T01:09:05.675Z,14.50
2018-05-04T01:11:34.315Z,14.50
2018-05-04T01:14:02.183Z,14.50
2018-05-04T01:16:30.119Z,14.50
2018-05-04T01:18:57.975Z,14.40
2018-05-04T01:21:26.579Z,14.40
2018-05-04T01:23:54.549Z,14.40
2018-05-04T01:26:22.801Z,14.40
2018-05-04T01:28:51.408Z,14.40
2018-05-04T01:31:19.345Z,14.40
2018-05-04T01:33:48.011Z,14.40
2018-05-04T01:36:15.822Z,14.50
2018-05-04T01:38:43.798Z,14.50
2018-05-04T01:41:11.686Z,14.50
2018-05-04T01:43:39.622Z,14.50
2018-05-04T01:46:07.605Z,14.50
2018-05-04T01:48:35.486Z,14.50
2018-05-04T01:51:03.396Z,14.50
2018-05-04T01:53:31.321Z,14.50
2018-05-04T01:55:59.219Z,14.50
2018-05-04T01:58:27.150Z,14.50
2018-05-04T02:00:55.104Z,14.50
2018-05-04T02:03:23.093Z,14.50
2018-05-04T02:05:50.970Z,14.50
2018-05-04T02:08:18.827Z,14.50
2018-05-04T02:10:46.715Z,14.50
2018-05-04T02:13:14.599Z,14.50
2018-05-04T02:15:42.515Z,14.50
2018-05-04T02:18:10.380Z,14.50
2018-05-04T02:20:38.239Z,14.50
2018-05-04T02:23:06.133Z,14.50
2018-05-04T02:25:34.079Z,14.50
2018-05-04T02:28:01.869Z,14.50
2018-05-04T02:30:29.914Z,14.40
2018-05-04T02:32:57.806Z,14.50
2018-05-04T02:35:25.682Z,14.50
2018-05-04T02:37:53.589Z,14.40
2018-05-04T02:40:22.219Z,14.40
2018-05-04T02:42:50.165Z,14.40
2018-05-04T02:45:18.078Z,14.40
2018-05-04T02:47:46.002Z,14.40
2018-05-04T02:50:13.956Z,14.30
2018-05-04T02:52:42.805Z,14.20
2018-05-04T02:55:10.666Z,14.20
2018-05-04T02:57:38.540Z,14.20
2018-05-04T03:00:06.437Z,14.20
2018-05-04T03:02:35.356Z,14.20
2018-05-04T03:05:03.289Z,14.20
2018-05-04T03:07:31.196Z,14.20
2018-05-04T03:09:59.034Z,14.20
2018-05-04T03:12:27.745Z,14.10
2018-05-04T03:14:55.625Z,14.10
2018-05-04T03:17:23.499Z,14.10
2018-05-04T03:19:51.331Z,14.10
2018-05-04T03:22:19.995Z,14.10
2018-05-04T03:24:47.830Z,14.10
2018-05-04T03:27:15.683Z,14.10
2018-05-04T03:29:43.589Z,14.10
2018-05-04T03:32:11.459Z,14.10
2018-05-04T03:34:39.320Z,14.00
2018-05-04T03:37:07.240Z,14.00
2018-05-04T03:39:35.798Z,14.00
2018-05-04T03:42:04.428Z,14.00
2018-05-04T03:44:34.120Z,14.00
2018-05-04T03:47:02.044Z,14.00
2018-05-04T03:49:30.814Z,14.00
2018-05-04T03:51:58.909Z,14.00
2018-05-04T03:54:27.539Z,13.90
2018-05-04T03:57:08.031Z,13.90
2018-05-04T03:59:47.719Z,13.90
2018-05-04T04:02:27.492Z,13.90
2018-05-04T04:04:55.379Z,14.00
2018-05-04T04:07:23.995Z,14.00
2018-05-04T04:09:52.044Z,14.00
2018-05-04T04:12:19.853Z,14.00
2018-05-04T04:14:48.559Z,14.00
2018-05-04T04:17:16.496Z,14.00
2018-05-04T04:19:46.028Z,14.00
2018-05-04T04:22:13.969Z,14.00
2018-05-04T04:24:42.673Z,14.10
2018-05-04T04:27:11.324Z,14.10
2018-05-04T04:29:39.204Z,14.10
2018-05-04T04:32:07.150Z,14.10
2018-05-04T04:34:35.043Z,14.10
2018-05-04T04:37:03.780Z,14.10
2018-05-04T04:39:31.842Z,14.10
2018-05-04T04:41:59.648Z,14.10
2018-05-04T04:44:27.495Z,14.00
2018-05-04T04:46:55.897Z,14.10
2018-05-04T04:49:24.547Z,14.10
2018-05-04T04:51:52.548Z,14.00
2018-05-04T04:54:20.550Z,14.00
2018-05-04T04:56:48.505Z,14.00
2018-05-04T04:59:17.170Z,14.00
2018-05-04T05:01:45.326Z,14.00
2018-05-04T05:04:13.136Z,14.10
2018-05-04T05:06:41.756Z,14.00
2018-05-04T05:09:09.709Z,14.00
2018-05-04T05:11:38.237Z,14.00
2018-05-04T05:14:06.166Z,14.00
2018-05-04T05:16:34.181Z,14.10
2018-05-04T05:19:02.049Z,14.10
2018-05-04T05:21:30.026Z,14.10
2018-05-04T05:23:58.865Z,14.10
2018-05-04T05:26:26.758Z,14.10
2018-05-04T05:28:55.368Z,14.20
2018-05-04T05:31:23.350Z,14.20
2018-05-04T05:33:51.187Z,14.20
2018-05-04T05:36:19.057Z,14.20
2018-05-04T05:38:46.990Z,14.20
2018-05-04T05:41:14.828Z,14.30
2018-05-04T05:43:43.481Z,14.30
2018-05-04T05:46:12.239Z,14.40
2018-05-04T05:48:40.155Z,14.30
2018-05-04T05:51:07.957Z,14.40
2018-05-04T05:53:35.857Z,14.40
2018-05-04T05:56:03.757Z,14.40
2018-05-04T05:58:32.400Z,14.50
2018-05-04T06:01:00.381Z,14.50
2018-05-04T06:03:28.255Z,14.50
2018-05-04T06:05:56.240Z,14.60
2018-05-04T06:08:24.161Z,14.60
2018-05-04T06:10:52.052Z,14.70
2018-05-04T06:13:19.915Z,14.70
2018-05-04T06:15:47.833Z,14.80
2018-05-04T06:18:16.441Z,14.80
2018-05-04T06:20:44.249Z,14.80
2018-05-04T06:23:12.963Z,14.90
2018-05-04T06:25:41.587Z,14.90
2018-05-04T06:28:09.521Z,14.90
2018-05-04T06:30:37.497Z,15.00
2018-05-04T06:33:06.168Z,15.10
2018-05-04T06:35:34.861Z,15.00
2018-05-04T06:38:02.774Z,15.00
2018-05-04T06:40:30.615Z,15.00
2018-05-04T06:42:58.471Z,15.00
2018-05-04T06:45:27.225Z,15.00
2018-05-04T06:47:55.071Z,15.00
2018-05-04T06:50:22.971Z,14.90
2018-05-04T06:52:51.038Z,15.00
2018-05-04T06:55:19.204Z,15.10
2018-05-04T06:57:47.104Z,15.10
2018-05-04T07:00:15.739Z,15.10
2018-05-04T07:02:43.625Z,15.10
2018-05-04T07:05:11.469Z,15.10
2018-05-04T07:07:39.488Z,15.10
2018-05-04T07:10:07.454Z,15.10
2018-05-04T07:12:36.149Z,15.10
2018-05-04T07:15:04.952Z,15.10
2018-05-04T07:17:32.729Z,15.10
2018-05-04T07:20:00.562Z,15.10
2018-05-04T07:22:29.321Z,15.20
2018-05-04T07:24:57.154Z,15.20
2018-05-04T07:27:25.083Z,15.20
2018-05-04T07:29:53.799Z,15.20
2018-05-04T07:32:21.674Z,15.20
2018-05-04T07:34:49.608Z,15.40
2018-05-04T07:37:18.437Z,15.60
2018-05-04T07:39:46.327Z,15.60
2018-05-04T07:42:14.243Z,15.70
2018-05-04T07:44:42.133Z,15.70
2018-05-04T07:47:09.970Z,15.70
2018-05-04T07:49:38.708Z,15.70
2018-05-04T07:52:06.685Z,15.60
2018-05-04T07:54:34.644Z,15.60
2018-05-04T07:57:02.583Z,15.60
2018-05-04T07:59:30.496Z,15.60
2018-05-04T08:01:58.467Z,15.60
2018-05-04T08:04:26.316Z,15.50
2018-05-04T08:06:54.195Z,15.50
2018-05-04T08:09:22.127Z,15.60
2018-05-04T08:11:49.992Z,15.60
2018-05-04T08:14:17.931Z,15.70
2018-05-04T08:16:46.531Z,15.80
2018-05-04T08:19:15.174Z,15.90
2018-05-04T08:21:43.096Z,15.90
2018-05-04T08:24:10.864Z,15.90
2018-05-04T08:26:38.598Z,16.00
2018-05-04T08:29:06.376Z,15.90
2018-05-04T08:31:34.877Z,15.80
2018-05-04T08:34:02.587Z,15.80
2018-05-04T08:36:30.527Z,15.80
2018-05-04T08:38:58.459Z,15.70
2018-05-04T08:41:27.155Z,15.80
2018-05-04T08:43:55.868Z,15.80
2018-05-04T08:46:23.794Z,15.80
2018-05-04T08:48:52.426Z,15.90
2018-05-04T08:51:20.431Z,15.80
2018-05-04T08:53:48.267Z,15.80
2018-05-04T08:56:16.084Z,15.80
2018-05-04T08:58:44.932Z,15.80
2018-05-04T09:01:12.769Z,15.80
2018-05-04T09:03:40.647Z,15.90
2018-05-04T09:06:08.587Z,15.90
2018-05-04T09:08:36.432Z,15.90
2018-05-04T09:11:06.169Z,16.00
2018-05-04T09:13:34.080Z,16.00
2018-05-04T09:16:01.956Z,16.10
2018-05-04T09:18:29.858Z,16.10
2018-05-04T09:33:12.617Z,16.10
2018-05-04T09:35:40.397Z,16.00
2018-05-04T09:38:08.219Z,16.00
2018-05-04T09:40:36.065Z,16.00
2018-05-04T09:43:04.009Z,16.00
2018-05-04T09:45:32.608Z,16.00
2018-05-04T09:48:01.356Z,16.10
2018-05-04T09:50:29.227Z,16.00
2018-05-04T09:52:57.152Z,16.10
2018-05-04T09:55:25.169Z,16.10
2018-05-04T09:57:53.113Z,16.20
2018-05-04T10:00:20.998Z,16.30
2018-05-04T10:02:48.947Z,16.30
2018-05-04T10:05:16.903Z,16.40
2018-05-04T10:07:44.776Z,16.40
2018-05-04T10:10:12.725Z,16.40
2018-05-04T10:12:40.660Z,16.50
2018-05-04T10:15:09.492Z,16.60
2018-05-04T10:17:37.402Z,16.60
2018-05-04T10:20:05.288Z,16.80
2018-05-04T10:22:33.873Z,17.20
2018-05-04T10:25:02.560Z,17.40
2018-05-04T10:27:30.413Z,17.30
2018-05-04T10:29:58.392Z,17.50
2018-05-04T10:32:27.076Z,17.80
2018-05-04T10:34:55.707Z,17.90
2018-05-04T10:37:23.596Z,17.80
2018-05-04T10:39:51.554Z,17.90
2018-05-04T10:42:19.489Z,17.80
2018-05-04T10:44:47.452Z,17.80
2018-05-04T10:47:15.402Z,17.70
2018-05-04T10:49:43.219Z,17.70
2018-05-04T10:52:11.147Z,17.70
2018-05-04T10:54:39.845Z,17.70
2018-05-04T10:57:07.841Z,17.70
2018-05-04T10:59:35.704Z,17.70
2018-05-04T11:02:03.666Z,17.70
2018-05-04T11:04:31.495Z,17.60
2018-05-04T11:07:00.171Z,17.60
2018-05-04T11:09:28.295Z,17.60
2018-05-04T11:11:56.206Z,17.60
2018-05-04T11:14:24.131Z,17.70
2018-05-04T11:16:51.989Z,17.70
2018-05-04T11:19:19.942Z,17.70
2018-05-04T11:21:47.799Z,17.70
2018-05-04T11:24:16.464Z,17.70
2018-05-04T11:26:44.438Z,17.70
2018-05-04T11:29:13.127Z,17.60
2018-05-04T11:31:41.097Z,17.60
2018-05-04T11:34:09.030Z,17.60
2018-05-04T11:36:36.942Z,17.60
2018-05-04T11:39:05.754Z,17.80
2018-05-04T11:41:33.681Z,17.80
2018-05-04T11:44:01.523Z,17.90
2018-05-04T11:46:29.494Z,17.90
2018-05-04T11:48:57.413Z,17.90
2018-05-04T11:51:26.065Z,18.10
2018-05-04T11:53:55.549Z,18.00
2018-05-04T11:56:23.495Z,18.00
2018-05-04T11:58:51.430Z,18.00
2018-05-04T12:01:20.158Z,18.00
2018-05-04T12:03:48.058Z,17.90
2018-05-04T12:06:15.996Z,17.90
2018-05-04T12:08:43.977Z,17.90
2018-05-04T12:11:11.880Z,17.80
2018-05-04T12:13:40.558Z,17.70
2018-05-04T12:16:08.459Z,17.60
2018-05-04T12:18:37.078Z,17.70
2018-05-04T12:21:04.937Z,17.60
2018-05-04T12:23:32.849Z,17.60
2018-05-04T12:26:01.509Z,17.60
2018-05-04T12:28:29.419Z,17.60
2018-05-04T12:30:58.167Z,17.70
2018-05-04T12:33:26.865Z,17.70
2018-05-04T12:35:54.801Z,17.70
2018-05-04T12:38:22.662Z,17.80
2018-05-04T12:40:50.448Z,17.90
2018-05-04T12:43:18.236Z,17.90
2018-05-04T12:45:46.026Z,18.00
2018-05-04T12:48:14.514Z,18.00
2018-05-04T12:50:43.224Z,18.00
2018-05-04T12:53:11.142Z,18.00
2018-05-04T12:55:39.047Z,18.00
2018-05-04T12:58:06.956Z,18.00
2018-05-04T13:00:35.013Z,18.00
2018-05-04T13:03:02.978Z,18.00
2018-05-04T13:05:30.891Z,18.10
2018-05-04T13:07:58.913Z,18.20
2018-05-04T13:10:26.917Z,18.30
2018-05-04T13:12:54.759Z,18.40
2018-05-04T13:15:22.758Z,18.50
2018-05-04T13:17:51.773Z,18.60
2018-05-04T13:20:20.481Z,18.70
2018-05-04T13:22:48.515Z,18.70
2018-05-04T13:25:17.954Z,18.70
2018-05-04T13:27:45.889Z,18.70
2018-05-04T13:30:13.878Z,18.70
2018-05-04T13:32:41.794Z,18.70
2018-05-04T13:35:09.887Z,18.80
2018-05-04T13:37:38.094Z,18.80
2018-05-04T13:40:06.709Z,18.80
2018-05-04T13:42:34.655Z,18.80
2018-05-04T13:45:03.504Z,18.90
2018-05-04T13:47:31.442Z,18.90
2018-05-04T13:49:59.339Z,18.80
2018-05-04T13:52:27.307Z,18.80
2018-05-04T13:54:55.183Z,18.70
2018-05-04T13:57:23.107Z,18.70
2018-05-04T13:59:51.167Z,18.60
2018-05-04T14:02:19.160Z,18.50
2018-05-04T14:04:47.049Z,18.40
2018-05-04T14:07:15.011Z,18.30
2018-05-04T14:09:42.845Z,18.30
2018-05-04T14:12:10.759Z,18.30
2018-05-04T14:14:38.735Z,18.20
2018-05-04T14:17:06.632Z,18.10
2018-05-04T14:19:34.506Z,18.00
2018-05-04T14:22:03.261Z,17.90
2018-05-04T14:24:31.180Z,17.90
2018-05-04T14:26:59.079Z,17.90
2018-05-04T14:29:27.160Z,17.80
2018-05-04T14:31:55.058Z,17.80
2018-05-04T14:34:23.727Z,17.70
2018-05-04T14:36:51.724Z,17.70
2018-05-04T14:39:19.663Z,17.70
2018-05-04T14:41:47.760Z,17.70
2018-05-04T14:44:16.443Z,17.70
2018-05-04T14:46:44.395Z,17.70
2018-05-04T14:49:12.271Z,17.70
2018-05-04T14:51:41.076Z,17.60
2018-05-04T14:54:10.632Z,17.60
2018-05-04T14:56:38.509Z,17.60
2018-05-04T14:59:06.422Z,17.60
2018-05-04T15:01:34.258Z,17.50
2018-05-04T15:04:02.275Z,17.50
2018-05-04T15:06:30.175Z,17.50
2018-05-04T15:08:58.258Z,17.50
2018-05-04T15:11:26.135Z,17.40
2018-05-04T15:13:54.153Z,17.30
2018-05-04T15:16:22.090Z,17.20
2018-05-04T15:18:50.840Z,17.10
2018-05-04T15:21:18.862Z,17.10
2018-05-04T15:23:46.744Z,17.10
2018-05-04T15:26:14.647Z,17.00
2018-05-04T15:28:42.626Z,17.00
2018-05-04T15:31:10.506Z,16.90
2018-05-04T15:33:38.466Z,16.80
2018-05-04T15:36:06.405Z,16.80
2018-05-04T15:38:34.311Z,16.70
2018-05-04T15:41:02.175Z,16.80
2018-05-04T15:43:30.975Z,16.70
2018-05-04T15:45:59.646Z,16.70
2018-05-04T15:48:33.027Z,16.70
2018-05-04T15:51:06.541Z,16.70
2018-05-04T15:53:34.494Z,16.70
2018-05-04T15:56:02.401Z,16.70
2018-05-04T15:58:31.116Z,16.50
2018-05-04T16:00:59.082Z,16.50
2018-05-04T16:03:27.041Z,16.50
2018-05-04T16:05:54.946Z,16.40
2018-05-04T16:08:22.837Z,16.40
2018-05-04T16:10:50.751Z,16.30
2018-05-04T16:13:18.665Z,16.30
2018-05-04T16:15:46.729Z,16.20
2018-05-04T16:18:14.653Z,16.10
2018-05-04T16:20:42.471Z,16.10
2018-05-04T16:23:10.407Z,16.00
2018-05-04T16:25:38.343Z,15.90
2018-05-04T16:28:06.931Z,15.80
2018-05-04T16:30:34.929Z,15.80
2018-05-04T16:33:02.822Z,15.80
2018-05-04T16:35:30.832Z,15.70
2018-05-04T16:37:59.542Z,15.60
2018-05-04T16:40:27.411Z,15.60
2018-05-04T16:42:55.358Z,15.60
2018-05-04T16:45:23.324Z,15.50
2018-05-04T16:47:57.677Z,15.50
2018-05-04T16:50:26.552Z,15.40
2018-05-04T16:52:54.415Z,15.50
2018-05-04T16:55:22.351Z,15.40
2018-05-04T16:57:50.418Z,15.40
2018-05-04T17:00:18.306Z,15.40
2018-05-04T17:02:47.055Z,15.40
2018-05-04T17:05:15.279Z,15.40
2018-05-04T17:07:44.015Z,15.50
2018-05-04T17:10:12.038Z,15.40
2018-05-04T17:12:39.962Z,15.40
2018-05-04T17:15:08.012Z,15.40
2018-05-04T17:17:35.984Z,15.40
2018-05-04T17:20:04.017Z,15.40
2018-05-04T17:22:32.173Z,15.40
2018-05-04T17:25:00.859Z,15.40
2018-05-04T17:27:29.560Z,15.40
2018-05-04T17:29:58.295Z,15.40
2018-05-04T17:32:26.328Z,15.40
2018-05-04T17:34:54.273Z,15.40
2018-05-04T17:37:22.203Z,15.40
2018-05-04T17:39:50.062Z,15.40
2018-05-04T17:42:18.065Z,15.40
2018-05-04T17:44:45.975Z,15.40
2018-05-04T17:47:13.865Z,15.40
2018-05-04T17:49:41.878Z,15.40
2018-05-04T17:52:10.620Z,15.40
2018-05-04T17:54:38.475Z,15.40
2018-05-04T17:57:06.383Z,15.40
2018-05-04T17:59:34.300Z,15.40
2018-05-04T18:02:02.151Z,15.30
2018-05-04T18:04:30.863Z,15.20
2018-05-04T18:06:58.686Z,15.20
2018-05-04T18:09:26.696Z,15.30
2018-05-04T18:11:54.695Z,15.20
2018-05-04T18:14:22.592Z,15.10
2018-05-04T18:16:51.303Z,15.10
2018-05-04T18:19:19.320Z,15.10
2018-05-04T18:21:47.229Z,15.10
2018-05-04T18:24:15.845Z,15.00
2018-05-04T18:26:43.823Z,15.00
2018-05-04T18:29:11.700Z,15.00
2018-05-04T18:31:39.648Z,15.10
2018-05-04T18:34:07.687Z,15.10
2018-05-04T18:36:36.321Z,15.00
2018-05-04T18:39:04.261Z,15.00
2018-05-04T18:41:32.189Z,15.00
2018-05-04T18:44:00.083Z,14.90
2018-05-04T18:46:28.720Z,14.80
2018-05-04T18:48:56.730Z,14.80
2018-05-04T18:51:25.291Z,14.80
2018-05-04T18:53:53.359Z,14.80
2018-05-04T18:56:21.249Z,14.80
2018-05-04T18:58:49.921Z,14.70
2018-05-04T19:01:17.963Z,14.70
2018-05-04T19:03:45.992Z,14.70
2018-05-04T19:06:13.939Z,14.70
2018-05-04T19:08:42.009Z,14.60
2018-05-04T19:11:10.708Z,14.70
2018-05-04T19:13:39.533Z,14.60
2018-05-04T19:16:07.547Z,14.60
2018-05-04T19:18:35.477Z,14.70
2018-05-04T19:21:03.364Z,14.60
2018-05-04T19:23:31.221Z,14.70
2018-05-04T19:25:59.188Z,14.70
2018-05-04T19:28:27.012Z,14.70
2018-05-04T19:30:55.628Z,14.60
2018-05-04T19:33:23.587Z,14.60
2018-05-04T19:35:51.510Z,14.50
2018-05-04T19:38:19.378Z,14.50
2018-05-04T19:40:47.307Z,14.50
2018-05-04T19:43:15.173Z,14.50
2018-05-04T19:45:43.031Z,14.40
2018-05-04T19:48:10.978Z,14.40
2018-05-04T19:50:39.578Z,14.30
2018-05-04T19:53:07.471Z,14.30
2018-05-04T19:55:35.360Z,14.30
2018-05-04T19:58:03.189Z,14.30
2018-05-04T20:00:31.214Z,14.20
2018-05-04T20:03:00.776Z,14.20
2018-05-04T20:05:28.696Z,14.20
2018-05-04T20:07:57.567Z,14.20
2018-05-04T20:10:25.583Z,14.20
2018-05-04T20:12:53.422Z,14.20
2018-05-04T20:15:22.035Z,14.20
2018-05-04T20:17:49.945Z,14.10
2018-05-04T20:20:18.499Z,14.10
2018-05-04T20:22:46.347Z,14.10
2018-05-04T20:25:14.290Z,14.10
2018-05-04T20:27:43.363Z,14.10
2018-05-04T20:30:11.168Z,14.00
2018-05-04T20:32:41.261Z,14.00
2018-05-04T20:35:09.422Z,14.00
2018-05-04T20:37:37.343Z,14.00
2018-05-04T20:40:05.330Z,14.00
2018-05-04T20:42:33.171Z,14.00
2018-05-04T20:45:00.978Z,14.00
2018-05-04T20:47:28.860Z,13.90
2018-05-04T20:49:56.731Z,13.90
2018-05-04T20:52:24.538Z,13.80
2018-05-04T20:54:52.416Z,13.80
2018-05-04T20:57:20.292Z,13.80
2018-05-04T20:59:48.168Z,13.70
2018-05-04T21:02:16.392Z,13.60
2018-05-04T21:04:45.065Z,13.70
2018-05-04T21:09:46.989Z,13.70
2018-05-04T21:12:14.833Z,13.70
2018-05-04T21:14:43.427Z,13.70
2018-05-04T21:17:11.418Z,13.70
2018-05-04T21:19:39.310Z,13.70
2018-05-04T21:22:07.216Z,13.60
2018-05-04T21:24:35.899Z,13.50
2018-05-04T21:27:04.627Z,13.50
2018-05-04T21:29:32.562Z,13.50
2018-05-04T21:32:01.237Z,13.40
2018-05-04T21:34:29.888Z,13.50
2018-05-04T21:36:57.729Z,13.40
2018-05-04T21:39:25.699Z,13.40
2018-05-04T21:41:53.562Z,13.40
2018-05-04T21:44:21.447Z,13.40
2018-05-04T21:46:49.364Z,13.40
2018-05-04T21:49:17.964Z,13.40
2018-05-04T21:51:45.989Z,13.40
2018-05-04T21:54:13.937Z,13.40
2018-05-04T21:56:41.815Z,13.40
2018-05-04T21:59:09.722Z,13.40
2018-05-04T22:01:37.679Z,13.40
2018-05-04T22:04:06.327Z,13.40
2018-05-04T22:06:34.877Z,13.40
2018-05-04T22:09:04.212Z,13.40
2018-05-04T22:11:33.096Z,13.40
2018-05-04T22:14:00.956Z,13.40
2018-05-04T22:16:28.873Z,13.40
2018-05-04T22:18:56.801Z,13.40
2018-05-04T22:21:24.782Z,13.40
2018-05-04T22:23:52.772Z,13.50
2018-05-04T22:26:20.846Z,13.50
2018-05-04T22:28:48.742Z,13.50
2018-05-04T22:31:17.625Z,13.50
2018-05-04T22:33:46.164Z,13.50
2018-05-04T22:36:13.910Z,13.50
2018-05-04T22:38:41.813Z,13.50
2018-05-04T22:41:09.579Z,13.60
2018-05-04T22:43:37.452Z,13.50
2018-05-04T22:46:05.411Z,13.50
2018-05-04T22:48:33.338Z,13.60
2018-05-04T22:51:01.228Z,13.60
2018-05-04T22:53:29.243Z,13.50
2018-05-04T22:55:57.839Z,13.60
2018-05-04T22:58:26.488Z,13.60
2018-05-04T23:00:54.434Z,13.60
2018-05-04T23:03:22.349Z,13.60
2018-05-04T23:05:50.965Z,13.50
2018-05-04T23:08:18.893Z,13.50
2018-05-04T23:10:46.766Z,13.50
2018-05-04T23:13:14.685Z,13.50
2018-05-04T23:15:42.686Z,13.60
2018-05-04T23:18:10.605Z,13.60
2018-05-04T23:20:38.470Z,13.50
2018-05-04T23:23:06.372Z,13.50
2018-05-04T23:25:34.257Z,13.50
2018-05-04T23:28:02.107Z,13.50
2018-05-04T23:30:30.046Z,13.40
2018-05-04T23:32:58.002Z,13.30
2018-05-04T23:35:25.881Z,13.30
2018-05-04T23:37:53.848Z,13.30
2018-05-04T23:40:21.700Z,13.20
2018-05-04T23:42:50.399Z,13.10
2018-05-04T23:45:18.419Z,13.10
2018-05-04T23:47:46.302Z,13.20
2018-05-04T23:50:14.220Z,13.10
2018-05-04T23:52:42.327Z,13.10
2018-05-04T23:55:10.210Z,13.10
2018-05-04T23:57:38.169Z,13.10
